createdAt,value
2017-06-12T00:00:21.815Z,67.21
2017-06-12T00:01:02.423Z,67.02
2017-06-12T00:01:42.896Z,67.02
2017-06-12T00:02:23.402Z,67.5
2017-06-12T00:03:03.912Z,67.4
2017-06-12T00:03:44.434Z,67.11
2017-06-12T00:04:24.931Z,66.82
2017-06-12T00:05:05.413Z,67.11
2017-06-12T00:05:45.911Z,67.02
2017-06-12T00:06:26.430Z,66.98
2017-06-12T00:07:06.929Z,67.08
2017-06-12T00:07:47.441Z,67.21
2017-06-12T00:08:27.918Z,66.98
2017-06-12T00:09:08.460Z,67.18
2017-06-12T00:09:48.905Z,66.92
2017-06-12T00:10:29.472Z,67.21
2017-06-12T00:11:09.970Z,67.08
2017-06-12T00:11:50.503Z,67.56
2017-06-12T00:12:31.011Z,66.92
2017-06-12T00:13:11.497Z,67.11
2017-06-12T00:13:52.024Z,66.98
2017-06-12T00:14:32.495Z,67.02
2017-06-12T00:15:13.021Z,67.18
2017-06-12T00:15:53.493Z,67.18
2017-06-12T00:16:34.022Z,67.11
2017-06-12T00:17:14.522Z,66.69
2017-06-12T00:17:55.079Z,66.88
2017-06-12T00:18:35.554Z,67.37
2017-06-12T00:19:16.077Z,67.18
2017-06-12T00:19:56.587Z,67.02
2017-06-12T00:20:37.128Z,66.69
2017-06-12T00:21:17.579Z,67.37
2017-06-12T00:21:58.088Z,67.56
2017-06-12T00:22:38.578Z,67.46
2017-06-12T00:23:19.099Z,67.08
2017-06-12T00:23:59.603Z,67.27
2017-06-12T00:24:40.139Z,67.08
2017-06-12T00:25:20.650Z,67.46
2017-06-12T00:26:01.165Z,67.27
2017-06-12T00:26:41.687Z,67.27
2017-06-12T00:27:22.128Z,67.27
2017-06-12T00:28:02.655Z,66.78
2017-06-12T00:28:43.167Z,67.08
2017-06-12T00:29:23.655Z,66.98
2017-06-12T00:30:04.155Z,67.18
2017-06-12T00:30:44.641Z,67.37
2017-06-12T00:31:25.183Z,66.98
2017-06-12T00:32:05.656Z,66.88
2017-06-12T00:32:46.797Z,66.78
2017-06-12T00:33:27.321Z,66.88
2017-06-12T00:34:07.798Z,67.18
2017-06-12T00:34:48.298Z,67.27
2017-06-12T00:35:28.854Z,67.66
2017-06-12T00:36:09.345Z,67.27
2017-06-12T00:36:49.816Z,67.08
2017-06-12T00:37:30.362Z,67.46
2017-06-12T00:38:10.861Z,67.37
2017-06-12T00:38:51.378Z,67.08
2017-06-12T00:39:31.884Z,67.27
2017-06-12T00:40:12.368Z,67.56
2017-06-12T00:40:52.888Z,67.37
2017-06-12T00:41:33.352Z,67.56
2017-06-12T00:42:13.879Z,67.18
2017-06-12T00:42:54.361Z,66.98
2017-06-12T00:43:34.842Z,66.88
2017-06-12T00:44:15.351Z,67.18
2017-06-12T00:44:55.943Z,67.08
2017-06-12T00:45:36.440Z,67.08
2017-06-12T00:46:17.071Z,67.27
2017-06-12T00:46:57.556Z,67.56
2017-06-12T00:47:38.075Z,67.66
2017-06-12T00:48:18.559Z,67.66
2017-06-12T00:48:59.075Z,67.56
2017-06-12T00:49:39.551Z,67.46
2017-06-12T00:50:20.059Z,67.46
2017-06-12T00:51:00.575Z,67.18
2017-06-12T00:51:41.088Z,67.08
2017-06-12T00:52:21.586Z,67.27
2017-06-12T00:53:02.134Z,66.88
2017-06-12T00:53:42.651Z,67.56
2017-06-12T00:54:23.115Z,67.95
2017-06-12T00:55:03.620Z,68.15
2017-06-12T00:55:44.133Z,67.66
2017-06-12T00:56:24.674Z,67.46
2017-06-12T00:57:05.159Z,67.76
2017-06-12T00:57:45.693Z,67.46
2017-06-12T00:58:26.157Z,67.08
2017-06-12T00:59:06.665Z,67.46
2017-06-12T00:59:47.194Z,66.98
2017-06-12T01:00:27.735Z,67.56
2017-06-12T01:01:08.190Z,67.18
2017-06-12T01:01:48.708Z,66.88
2017-06-12T01:02:29.216Z,66.88
2017-06-12T01:03:09.756Z,66.98
2017-06-12T01:03:50.229Z,67.08
2017-06-12T01:04:30.754Z,67.46
2017-06-12T01:05:11.271Z,67.46
2017-06-12T01:05:51.729Z,67.46
2017-06-12T01:06:32.279Z,67.66
2017-06-12T01:07:12.740Z,67.56
2017-06-12T01:07:53.313Z,67.37
2017-06-12T01:08:33.746Z,66.88
2017-06-12T01:09:14.309Z,66.88
2017-06-12T01:09:54.770Z,67.18
2017-06-12T01:10:35.295Z,67.56
2017-06-12T01:11:15.820Z,67.27
2017-06-12T01:11:56.321Z,66.69
2017-06-12T01:12:36.813Z,66.88
2017-06-12T01:13:17.361Z,66.88
2017-06-12T01:13:57.832Z,66.88
2017-06-12T01:14:38.360Z,67.18
2017-06-12T01:15:18.843Z,67.08
2017-06-12T01:15:59.354Z,67.08
2017-06-12T01:16:39.831Z,67.08
2017-06-12T01:17:20.370Z,67.08
2017-06-12T01:18:00.839Z,67.46
2017-06-12T01:18:41.330Z,66.69
2017-06-12T01:19:21.848Z,66.69
2017-06-12T01:20:02.382Z,66.78
2017-06-12T01:20:42.900Z,66.69
2017-06-12T01:21:23.368Z,66.3
2017-06-12T01:22:03.908Z,66.69
2017-06-12T01:22:44.388Z,66.78
2017-06-12T01:23:24.852Z,65.92
2017-06-12T01:24:05.356Z,66.11
2017-06-12T01:24:45.834Z,66.2
2017-06-12T01:25:26.345Z,65.72
2017-06-12T01:26:06.895Z,66.02
2017-06-12T01:26:47.386Z,66.2
2017-06-12T01:27:27.862Z,66.02
2017-06-12T01:28:08.375Z,66.02
2017-06-12T01:28:48.861Z,66.11
2017-06-12T01:29:29.371Z,65.92
2017-06-12T01:30:09.844Z,65.92
2017-06-12T01:30:50.306Z,65.72
2017-06-12T01:31:30.867Z,66.02
2017-06-12T01:32:11.356Z,65.92
2017-06-12T01:32:51.853Z,66.02
2017-06-12T01:33:32.341Z,66.11
2017-06-12T01:34:12.850Z,66.11
2017-06-12T01:34:53.371Z,65.92
2017-06-12T01:35:33.874Z,65.53
2017-06-12T01:36:14.344Z,65.43
2017-06-12T01:36:54.888Z,65.72
2017-06-12T01:37:35.369Z,65.63
2017-06-12T01:38:15.861Z,65.72
2017-06-12T01:38:56.377Z,65.53
2017-06-12T01:39:36.865Z,65.34
2017-06-12T01:40:17.349Z,65.34
2017-06-12T01:40:57.824Z,65.34
2017-06-12T01:41:38.327Z,65.63
2017-06-12T01:42:18.859Z,65.66
2017-06-12T01:42:59.351Z,65.53
2017-06-12T01:43:39.838Z,65.72
2017-06-12T01:44:20.375Z,65.72
2017-06-12T01:45:00.876Z,65.05
2017-06-12T01:45:41.402Z,65.43
2017-06-12T01:46:21.920Z,65.53
2017-06-12T01:47:02.394Z,65.53
2017-06-12T01:47:42.930Z,65.53
2017-06-12T01:48:23.440Z,65.34
2017-06-12T01:49:03.956Z,65.72
2017-06-12T01:49:44.441Z,65.75
2017-06-12T01:50:24.933Z,64.85
2017-06-12T01:51:05.397Z,65.05
2017-06-12T01:51:46.063Z,65.14
2017-06-12T01:52:26.450Z,65.08
2017-06-12T01:53:06.957Z,65.14
2017-06-12T01:53:47.422Z,64.79
2017-06-12T01:54:27.883Z,65.08
2017-06-12T01:55:08.424Z,64.98
2017-06-12T01:55:48.871Z,65.05
2017-06-12T01:56:29.445Z,65.24
2017-06-12T01:58:47.740Z,65.66
2017-06-12T01:59:28.260Z,65.56
2017-06-12T02:00:08.777Z,65.27
2017-06-12T02:00:49.298Z,65.34
2017-06-12T02:01:29.817Z,65.53
2017-06-12T02:02:10.337Z,65.72
2017-06-12T02:02:50.871Z,65.82
2017-06-12T02:03:31.402Z,66.02
2017-06-12T02:04:11.924Z,65.92
2017-06-12T02:04:52.455Z,66.11
2017-06-12T02:05:32.973Z,65.53
2017-06-12T02:06:13.507Z,65.72
2017-06-12T02:06:54.024Z,66.02
2017-06-12T02:07:34.552Z,66.78
2017-06-12T02:08:15.070Z,66.88
2017-06-12T02:08:55.599Z,66.78
2017-06-12T02:09:36.113Z,67.02
2017-06-12T02:10:16.634Z,66.78
2017-06-12T02:10:57.142Z,66.3
2017-06-12T02:11:37.670Z,66.69
2017-06-12T02:12:18.212Z,66.78
2017-06-12T02:12:58.727Z,66.6
2017-06-12T02:13:39.255Z,66.6
2017-06-12T02:14:19.778Z,67.46
2017-06-12T02:15:00.298Z,67.08
2017-06-12T02:15:40.833Z,66.98
2017-06-12T02:16:21.331Z,67.27
2017-06-12T02:17:01.870Z,67.08
2017-06-12T02:17:42.386Z,66.69
2017-06-12T02:18:22.918Z,66.88
2017-06-12T02:19:03.447Z,67.08
2017-06-12T02:19:43.972Z,67.18
2017-06-12T02:20:24.489Z,66.88
2017-06-12T02:21:05.044Z,67.18
2017-06-12T02:21:45.558Z,67.08
2017-06-12T02:22:26.083Z,67.37
2017-06-12T02:23:06.591Z,67.27
2017-06-12T02:23:47.136Z,67.08
2017-06-12T02:24:27.637Z,67.46
2017-06-12T02:25:08.170Z,66.98
2017-06-12T02:25:48.698Z,67.08
2017-06-12T02:26:29.211Z,67.46
2017-06-12T02:27:09.736Z,67.18
2017-06-12T02:27:50.273Z,66.98
2017-06-12T02:28:30.808Z,66.88
2017-06-12T02:29:11.352Z,67.37
2017-06-12T02:29:51.836Z,67.27
2017-06-12T02:30:32.306Z,67.27
2017-06-12T02:31:12.824Z,67.85
2017-06-12T02:31:53.359Z,67.95
2017-06-12T02:32:33.839Z,68.43
2017-06-12T02:33:14.331Z,68.24
2017-06-12T02:33:54.842Z,68.43
2017-06-12T02:34:35.349Z,68.73
2017-06-12T02:35:15.868Z,68.33
2017-06-12T02:35:56.384Z,68.15
2017-06-12T02:36:36.910Z,67.95
2017-06-12T02:37:17.429Z,68.24
2017-06-12T02:37:57.956Z,68.24
2017-06-12T02:38:38.471Z,68.24
2017-06-12T02:39:18.965Z,68.24
2017-06-12T02:39:59.497Z,68.24
2017-06-12T02:40:40.075Z,68.53
2017-06-12T02:41:20.491Z,68.82
2017-06-12T02:42:00.994Z,68.63
2017-06-12T02:42:41.542Z,68.3
2017-06-12T02:43:22.031Z,68.53
2017-06-12T02:44:02.513Z,68.43
2017-06-12T02:44:43.030Z,68.33
2017-06-12T02:45:23.517Z,68.43
2017-06-12T02:46:04.047Z,68.33
2017-06-12T02:46:44.492Z,68.4
2017-06-12T02:47:25.007Z,68.73
2017-06-12T02:48:05.545Z,68.33
2017-06-12T02:48:46.019Z,68.33
2017-06-12T02:49:26.518Z,68.73
2017-06-12T02:50:07.016Z,68.91
2017-06-12T02:50:47.485Z,68.33
2017-06-12T02:51:27.985Z,68.33
2017-06-12T02:52:08.455Z,68.33
2017-06-12T02:52:48.959Z,68.59
2017-06-12T02:53:29.415Z,68.43
2017-06-12T02:54:09.901Z,68.24
2017-06-12T02:54:50.426Z,68.24
2017-06-12T02:55:30.911Z,68.24
2017-06-12T02:56:11.409Z,68.33
2017-06-12T02:56:51.903Z,68.33
2017-06-12T02:57:32.405Z,68.43
2017-06-12T02:58:12.894Z,68.33
2017-06-12T02:58:53.416Z,68.43
2017-06-12T02:59:33.878Z,68.33
2017-06-12T03:00:14.380Z,68.33
2017-06-12T03:00:54.873Z,68.63
2017-06-12T03:01:35.383Z,68.3
2017-06-12T03:02:15.834Z,68.79
2017-06-12T03:02:56.349Z,68.15
2017-06-12T03:03:36.827Z,68.24
2017-06-12T03:04:17.344Z,68.43
2017-06-12T03:04:57.854Z,68.43
2017-06-12T03:05:38.377Z,68.82
2017-06-12T03:06:18.898Z,68.24
2017-06-12T03:06:59.353Z,68.43
2017-06-12T03:07:39.893Z,68.91
2017-06-12T03:08:20.403Z,68.73
2017-06-12T03:09:00.901Z,69.01
2017-06-12T03:09:41.369Z,68.73
2017-06-12T03:10:21.871Z,68.73
2017-06-12T03:11:02.371Z,68.82
2017-06-12T03:11:42.872Z,68.69
2017-06-12T03:12:23.363Z,68.88
2017-06-12T03:13:03.809Z,68.79
2017-06-12T03:13:44.305Z,68.82
2017-06-12T03:14:24.819Z,69.46
2017-06-12T03:15:05.290Z,69.37
2017-06-12T03:15:45.797Z,69.37
2017-06-12T03:16:26.324Z,68.82
2017-06-12T03:17:06.804Z,68.98
2017-06-12T03:17:47.342Z,69.46
2017-06-12T03:18:27.819Z,69.37
2017-06-12T03:19:08.305Z,69.37
2017-06-12T03:19:48.800Z,69.08
2017-06-12T03:20:29.286Z,69.56
2017-06-12T03:21:09.848Z,69.11
2017-06-12T03:21:50.296Z,69.46
2017-06-12T03:22:30.805Z,69.37
2017-06-12T03:23:11.292Z,69.4
2017-06-12T03:23:51.818Z,69.27
2017-06-12T03:24:32.327Z,69.27
2017-06-12T03:25:12.819Z,69.27
2017-06-12T03:25:53.300Z,69.27
2017-06-12T03:26:33.809Z,69.37
2017-06-12T03:27:14.459Z,69.31
2017-06-12T03:27:55.002Z,68.98
2017-06-12T03:28:35.496Z,68.69
2017-06-12T03:29:16.024Z,68.49
2017-06-12T03:29:56.463Z,68.73
2017-06-12T03:30:36.987Z,68.82
2017-06-12T03:31:17.465Z,69.01
2017-06-12T03:31:57.994Z,68.91
2017-06-12T03:32:38.523Z,69.4
2017-06-12T03:33:19.045Z,68.69
2017-06-12T03:33:59.496Z,68.82
2017-06-12T03:34:40.013Z,68.33
2017-06-12T03:35:20.566Z,68.79
2017-06-12T03:36:01.005Z,68.43
2017-06-12T03:36:41.497Z,68.53
2017-06-12T03:37:22.026Z,68.4
2017-06-12T03:38:02.540Z,68.4
2017-06-12T03:38:43.044Z,68.33
2017-06-12T03:39:23.574Z,68.3
2017-06-12T03:40:04.081Z,68.4
2017-06-12T03:40:44.609Z,68.24
2017-06-12T03:41:25.137Z,68.33
2017-06-12T03:42:05.658Z,68.43
2017-06-12T03:42:46.163Z,68.43
2017-06-12T03:43:26.682Z,68.15
2017-06-12T03:44:07.209Z,68.24
2017-06-12T03:44:47.675Z,68.24
2017-06-12T03:45:28.184Z,67.95
2017-06-12T03:46:08.703Z,68.33
2017-06-12T03:46:49.240Z,67.95
2017-06-12T03:47:29.763Z,68.15
2017-06-12T03:48:10.283Z,68.05
2017-06-12T03:48:50.808Z,67.37
2017-06-12T03:49:31.335Z,67.95
2017-06-12T03:50:11.861Z,67.37
2017-06-12T03:50:52.388Z,67.37
2017-06-12T03:51:32.908Z,67.85
2017-06-12T03:52:13.454Z,68.05
2017-06-12T03:52:53.941Z,67.76
2017-06-12T03:53:34.504Z,67.95
2017-06-12T03:54:14.978Z,68.33
2017-06-12T03:54:55.529Z,67.76
2017-06-12T03:55:36.023Z,68.24
2017-06-12T03:56:16.570Z,68.01
2017-06-12T03:56:57.053Z,67.85
2017-06-12T03:57:37.545Z,68.15
2017-06-12T03:58:18.062Z,68.15
2017-06-12T03:58:58.537Z,68.24
2017-06-12T03:59:39.044Z,68.4
2017-06-12T04:00:19.543Z,68.05
2017-06-12T04:01:00.002Z,68.15
2017-06-12T04:01:40.491Z,67.95
2017-06-12T04:02:21.040Z,68.05
2017-06-12T04:03:01.515Z,68.15
2017-06-12T04:03:41.994Z,68.11
2017-06-12T04:04:22.496Z,68.21
2017-06-12T04:05:02.989Z,67.91
2017-06-12T04:05:43.529Z,68.15
2017-06-12T04:06:24.005Z,68.21
2017-06-12T04:07:04.504Z,68.43
2017-06-12T04:07:44.996Z,68.4
2017-06-12T04:08:25.479Z,68.05
2017-06-12T04:09:05.967Z,68.3
2017-06-12T04:09:46.486Z,68.05
2017-06-12T04:10:26.933Z,67.95
2017-06-12T04:11:07.468Z,68.33
2017-06-12T04:11:47.992Z,68.01
2017-06-12T04:12:28.481Z,68.43
2017-06-12T04:13:09.030Z,68.33
2017-06-12T04:13:49.465Z,68.21
2017-06-12T04:14:30.001Z,68.4
2017-06-12T04:15:10.506Z,68.4
2017-06-12T04:15:51.000Z,68.43
2017-06-12T04:16:31.471Z,68.11
2017-06-12T04:17:11.982Z,68.33
2017-06-12T04:17:52.474Z,68.15
2017-06-12T04:18:32.954Z,68.15
2017-06-12T04:19:13.437Z,67.85
2017-06-12T04:19:53.987Z,68.24
2017-06-12T04:20:34.457Z,68.24
2017-06-12T04:21:14.989Z,68.11
2017-06-12T04:21:55.464Z,68.43
2017-06-12T04:22:35.972Z,68.43
2017-06-12T04:23:16.460Z,68.63
2017-06-12T04:23:56.970Z,68.43
2017-06-12T04:24:37.462Z,68.33
2017-06-12T04:25:17.936Z,68.43
2017-06-12T04:25:58.422Z,68.59
2017-06-12T04:26:38.950Z,68.82
2017-06-12T04:27:19.461Z,68.3
2017-06-12T04:27:59.957Z,68.49
2017-06-12T04:28:40.477Z,68.53
2017-06-12T04:29:20.993Z,68.4
2017-06-12T04:30:01.475Z,68.49
2017-06-12T04:30:41.996Z,68.59
2017-06-12T04:31:22.465Z,68.69
2017-06-12T04:32:02.965Z,68.43
2017-06-12T04:32:43.468Z,68.79
2017-06-12T04:33:23.983Z,68.79
2017-06-12T04:34:04.481Z,69.17
2017-06-12T04:34:44.990Z,68.79
2017-06-12T04:35:25.447Z,68.88
2017-06-12T04:36:05.967Z,68.79
2017-06-12T04:36:46.472Z,68.79
2017-06-12T04:37:26.974Z,68.88
2017-06-12T04:38:07.466Z,68.79
2017-06-12T04:38:47.969Z,69.17
2017-06-12T04:39:28.478Z,68.59
2017-06-12T04:40:09.022Z,68.59
2017-06-12T04:40:49.498Z,68.69
2017-06-12T04:41:29.984Z,69.17
2017-06-12T04:42:10.563Z,68.91
2017-06-12T04:42:51.031Z,68.88
2017-06-12T04:43:31.518Z,68.53
2017-06-12T04:44:12.033Z,68.43
2017-06-12T04:44:52.548Z,68.59
2017-06-12T04:45:33.023Z,68.43
2017-06-12T04:46:13.517Z,68.63
2017-06-12T04:46:54.022Z,68.82
2017-06-12T04:47:34.565Z,68.05
2017-06-12T04:48:15.033Z,68.63
2017-06-12T04:48:55.503Z,68.69
2017-06-12T04:49:36.030Z,68.49
2017-06-12T04:50:16.530Z,68.53
2017-06-12T04:50:56.987Z,68.33
2017-06-12T04:51:37.503Z,68.63
2017-06-12T04:52:18.018Z,68.43
2017-06-12T04:52:58.510Z,68.63
2017-06-12T04:53:39.013Z,68.91
2017-06-12T04:54:19.516Z,68.33
2017-06-12T04:55:00.022Z,68.43
2017-06-12T04:55:40.562Z,68.15
2017-06-12T04:56:21.022Z,68.15
2017-06-12T04:57:01.485Z,68.43
2017-06-12T04:57:42.047Z,68.24
2017-06-12T04:58:22.500Z,68.24
2017-06-12T04:59:03.045Z,67.85
2017-06-12T04:59:43.540Z,67.85
2017-06-12T05:00:24.056Z,67.5
2017-06-12T05:01:04.531Z,67.4
2017-06-12T05:01:45.057Z,67.02
2017-06-12T05:02:25.561Z,66.92
2017-06-12T05:03:06.078Z,66.34
2017-06-12T05:03:46.617Z,66.17
2017-06-12T05:04:27.111Z,65.59
2017-06-12T05:06:45.461Z,65.01
2017-06-12T05:07:26.007Z,64.92
2017-06-12T05:08:06.535Z,65.01
2017-06-12T05:08:47.065Z,65.11
2017-06-12T05:09:27.591Z,65.4
2017-06-12T05:10:08.129Z,65.66
2017-06-12T05:10:48.654Z,65.75
2017-06-12T05:11:29.187Z,73.11
2017-06-12T05:12:09.726Z,72.24
2017-06-12T05:12:50.255Z,76.89
2017-06-12T05:13:30.801Z,73.31
2017-06-12T05:14:11.333Z,73.69
2017-06-12T05:14:51.863Z,73.99
2017-06-12T05:15:32.380Z,74.96
2017-06-12T05:16:12.907Z,77.37
2017-06-12T05:16:53.453Z,73.6
2017-06-12T05:17:33.960Z,72.44
2017-06-12T05:18:14.485Z,73.89
2017-06-12T05:18:55.043Z,74.57
2017-06-12T05:19:35.571Z,72.53
2017-06-12T05:20:16.060Z,76.79
2017-06-12T05:20:56.580Z,74.57
2017-06-12T05:21:37.102Z,76.89
2017-06-12T05:22:17.677Z,77.96
2017-06-12T05:22:58.199Z,77.86
2017-06-12T05:23:38.728Z,79.22
2017-06-12T05:24:19.263Z,78.92
2017-06-12T05:25:00.025Z,76.79
2017-06-12T05:25:40.546Z,79.5
2017-06-12T05:26:21.054Z,81.25
2017-06-12T05:27:01.533Z,76.21
2017-06-12T05:27:42.024Z,80.09
2017-06-12T05:28:22.767Z,78.64
2017-06-12T05:29:03.198Z,79.6
2017-06-12T05:29:43.757Z,79.8
2017-06-12T05:30:24.208Z,74.18
2017-06-12T05:31:04.705Z,75.83
2017-06-12T05:31:45.188Z,77.86
2017-06-12T05:32:25.681Z,76.79
2017-06-12T05:33:06.220Z,77.09
2017-06-12T05:33:50.967Z,72.24
2017-06-12T05:34:32.285Z,74.76
2017-06-12T05:35:13.727Z,78.05
2017-06-12T05:35:54.370Z,78.15
2017-06-12T05:36:34.852Z,77.67
2017-06-12T05:37:15.316Z,74.57
2017-06-12T05:37:55.815Z,74.28
2017-06-12T05:38:36.298Z,75.34
2017-06-12T05:39:16.783Z,75.15
2017-06-12T05:39:58.030Z,72.92
2017-06-12T05:42:16.502Z,71.18
2017-06-12T05:42:57.034Z,70.79
2017-06-12T05:43:37.580Z,71.12
2017-06-12T05:44:18.100Z,72.86
2017-06-12T05:44:58.630Z,70.34
2017-06-12T05:45:40.336Z,68.79
2017-06-12T05:46:20.826Z,71.12
2017-06-12T05:47:01.285Z,69.67
2017-06-12T05:47:41.798Z,69.89
2017-06-12T05:48:22.376Z,69.99
2017-06-12T05:49:03.019Z,70.25
2017-06-12T05:49:44.166Z,71.64
2017-06-12T05:50:24.662Z,72.12
2017-06-12T05:51:05.167Z,70.09
2017-06-12T05:51:45.622Z,68.73
2017-06-12T05:52:26.136Z,71.25
2017-06-12T05:53:06.639Z,66.99
2017-06-12T05:53:47.121Z,69.89
2017-06-12T05:54:27.652Z,70.18
2017-06-12T05:55:08.172Z,70.44
2017-06-12T05:55:48.713Z,68.89
2017-06-12T05:56:31.507Z,68.79
2017-06-12T05:57:11.510Z,69.85
2017-06-12T05:57:52.178Z,71.6
2017-06-12T05:58:33.201Z,72.57
2017-06-12T05:59:13.064Z,75.09
2017-06-12T05:59:53.592Z,76.25
2017-06-12T06:00:34.088Z,75.67
2017-06-12T06:01:14.617Z,71.6
2017-06-12T06:01:55.098Z,72.38
2017-06-12T06:02:35.574Z,73.15
2017-06-12T06:03:16.051Z,76.97
2017-06-12T06:03:56.549Z,76.78
2017-06-12T06:04:37.056Z,79.68
2017-06-12T06:05:17.590Z,74.64
2017-06-12T06:05:58.064Z,70.05
2017-06-12T06:06:38.591Z,68.3
2017-06-12T06:07:19.081Z,73.83
2017-06-12T06:07:59.598Z,78.67
2017-06-12T06:08:40.141Z,76.68
2017-06-12T06:09:20.603Z,79.1
2017-06-12T06:10:01.141Z,81.13
2017-06-12T06:10:41.586Z,82.4
2017-06-12T06:11:22.079Z,81.72
2017-06-12T06:12:02.576Z,81.91
2017-06-12T06:12:43.066Z,77.06
2017-06-12T06:13:23.588Z,79.3
2017-06-12T06:14:04.082Z,77.06
2017-06-12T06:14:44.583Z,76.19
2017-06-12T06:15:25.143Z,75.42
2017-06-12T06:16:05.690Z,80.75
2017-06-12T06:16:46.178Z,75.9
2017-06-12T06:17:26.706Z,76.68
2017-06-12T06:18:07.217Z,78.71
2017-06-12T06:18:47.701Z,78.71
2017-06-12T06:19:28.215Z,79.39
2017-06-12T06:20:08.670Z,78.81
2017-06-12T06:20:49.176Z,82.73
2017-06-12T06:21:29.681Z,81.62
2017-06-12T06:22:10.237Z,83.89
2017-06-12T06:22:50.719Z,75.26
2017-06-12T06:23:31.324Z,80.69
2017-06-12T06:24:11.856Z,82.92
2017-06-12T06:24:52.479Z,80.5
2017-06-12T06:25:33.064Z,80.3
2017-06-12T06:26:13.596Z,79.63
2017-06-12T06:26:54.045Z,82.73
2017-06-12T06:27:34.556Z,80.79
2017-06-12T06:28:15.042Z,78.17
2017-06-12T06:28:55.540Z,82.63
2017-06-12T06:29:36.066Z,79.82
2017-06-12T06:30:16.541Z,74.29
2017-06-12T06:30:57.036Z,74
2017-06-12T06:31:37.501Z,71.96
2017-06-12T06:32:18.026Z,69.24
2017-06-12T06:32:58.521Z,71.77
2017-06-12T06:33:38.997Z,72.45
2017-06-12T06:34:19.538Z,74.58
2017-06-12T06:35:00.146Z,70.21
2017-06-12T06:35:40.617Z,72.35
2017-06-12T06:36:21.125Z,71.96
2017-06-12T06:37:01.637Z,73.52
2017-06-12T06:37:42.131Z,70.21
2017-06-12T06:38:22.620Z,73.8
2017-06-12T06:39:03.170Z,75.32
2017-06-12T06:39:43.639Z,75.32
2017-06-12T06:40:24.130Z,75.71
2017-06-12T06:41:04.754Z,72.89
2017-06-12T06:41:45.247Z,71.64
2017-06-12T06:42:25.755Z,72.41
2017-06-12T06:43:06.307Z,71.93
2017-06-12T06:43:46.789Z,74.06
2017-06-12T06:44:27.283Z,74.16
2017-06-12T06:45:07.855Z,72.12
2017-06-12T06:45:48.338Z,71.54
2017-06-12T06:46:29.033Z,70.57
2017-06-12T06:47:09.521Z,72.02
2017-06-12T06:47:50.041Z,69.02
2017-06-12T06:48:30.531Z,71.15
2017-06-12T06:49:11.089Z,71.64
2017-06-12T06:49:51.571Z,71.83
2017-06-12T06:50:32.068Z,70.28
2017-06-12T06:51:12.594Z,69.64
2017-06-12T06:51:53.119Z,69.02
2017-06-12T06:52:33.784Z,67.18
2017-06-12T06:53:14.280Z,74.84
2017-06-12T06:53:54.815Z,78.42
2017-06-12T06:54:35.453Z,78.42
2017-06-12T06:55:15.874Z,79.2
2017-06-12T06:55:56.386Z,80.55
2017-06-12T06:56:37.041Z,81.72
2017-06-12T06:57:17.414Z,81.62
2017-06-12T06:57:57.933Z,81.82
2017-06-12T06:58:38.488Z,82.3
2017-06-12T06:59:19.009Z,82.88
2017-06-12T06:59:59.516Z,79.2
2017-06-12T07:00:39.997Z,75.71
2017-06-12T07:01:20.512Z,79.3
2017-06-12T07:02:01.030Z,81.91
2017-06-12T07:02:41.506Z,83.07
2017-06-12T07:03:22.021Z,80.26
2017-06-12T07:04:02.528Z,76.78
2017-06-12T07:04:42.993Z,83.47
2017-06-12T07:05:23.594Z,76.39
2017-06-12T07:06:04.122Z,74.35
2017-06-12T07:06:44.628Z,75.9
2017-06-12T07:07:25.183Z,77.65
2017-06-12T07:08:05.692Z,73.09
2017-06-12T07:08:46.154Z,82.5
2017-06-12T07:09:26.689Z,82.78
2017-06-12T07:10:07.177Z,83.47
2017-06-12T07:10:47.683Z,78.91
2017-06-12T07:11:28.182Z,83.22
2017-06-12T07:12:09.385Z,87.29
2017-06-12T07:12:49.902Z,84.67
2017-06-12T07:13:30.395Z,83.4
2017-06-12T07:14:10.882Z,84.47
2017-06-12T07:14:51.410Z,82.82
2017-06-12T07:15:31.912Z,85.25
2017-06-12T07:16:12.411Z,86.51
2017-06-12T07:16:52.918Z,82.82
2017-06-12T07:17:33.462Z,81.37
2017-06-12T07:18:14.016Z,79.53
2017-06-12T07:18:54.576Z,74.39
2017-06-12T07:19:35.052Z,74.87
2017-06-12T07:20:15.648Z,71.48
2017-06-12T07:20:56.076Z,79.14
2017-06-12T07:21:36.569Z,74.1
2017-06-12T07:22:17.039Z,71.44
2017-06-12T07:22:57.573Z,73.28
2017-06-12T07:23:38.085Z,76.78
2017-06-12T07:24:18.603Z,80.6
2017-06-12T07:24:59.056Z,79.39
2017-06-12T07:25:39.566Z,74.49
2017-06-12T07:26:20.060Z,76.81
2017-06-12T07:27:00.753Z,77.98
2017-06-12T07:27:41.265Z,75.26
2017-06-12T07:28:21.772Z,75.32
2017-06-12T07:29:02.259Z,77.06
2017-06-12T07:29:42.718Z,77.65
2017-06-12T07:30:23.283Z,77.16
2017-06-12T07:31:03.771Z,74.16
2017-06-12T07:31:44.257Z,76.58
2017-06-12T07:32:24.810Z,75.09
2017-06-12T07:33:05.278Z,72.02
2017-06-12T07:33:45.751Z,71.6
2017-06-12T07:34:26.273Z,70.73
2017-06-12T07:35:06.829Z,71.73
2017-06-12T07:35:47.271Z,74.7
2017-06-12T07:36:29.247Z,73.93
2017-06-12T07:37:09.694Z,75.32
2017-06-12T07:37:50.240Z,75.9
2017-06-12T07:38:30.845Z,70.96
2017-06-12T07:39:11.515Z,73.73
2017-06-12T07:39:52.028Z,80.46
2017-06-12T07:40:32.472Z,80.36
2017-06-12T07:41:12.963Z,80.55
2017-06-12T07:41:53.464Z,76.19
2017-06-12T07:42:34.006Z,74.12
2017-06-12T07:43:14.544Z,75.77
2017-06-12T07:43:55.195Z,76.15
2017-06-12T07:44:35.686Z,77.9
2017-06-12T07:45:16.157Z,77.9
2017-06-12T07:45:56.771Z,78.29
2017-06-12T07:46:37.442Z,78.38
2017-06-12T07:47:17.938Z,77.32
2017-06-12T07:47:58.705Z,78.77
2017-06-12T07:48:39.253Z,79.35
2017-06-12T07:49:19.754Z,80.75
2017-06-12T07:50:00.310Z,80.32
2017-06-12T07:50:40.812Z,79.93
2017-06-12T07:51:21.291Z,81.33
2017-06-12T07:52:01.806Z,78.81
2017-06-12T07:52:42.308Z,80.07
2017-06-12T07:53:22.791Z,79.68
2017-06-12T07:54:03.316Z,74.84
2017-06-12T07:54:43.811Z,77.84
2017-06-12T07:55:24.400Z,80.26
2017-06-12T07:56:04.875Z,81.91
2017-06-12T07:56:45.768Z,80.17
2017-06-12T07:57:26.309Z,76.87
2017-06-12T07:58:06.971Z,75.9
2017-06-12T07:58:47.686Z,81.72
2017-06-12T08:01:01.129Z,77.75
2017-06-12T08:01:41.644Z,76.68
2017-06-12T08:02:22.264Z,78.13
2017-06-12T08:03:02.746Z,75.13
2017-06-12T08:03:43.248Z,81.18
2017-06-12T08:04:23.741Z,77.2
2017-06-12T08:05:04.229Z,81.18
2017-06-12T08:05:44.730Z,77.01
2017-06-12T08:06:25.213Z,72.45
2017-06-12T08:07:05.732Z,76.91
2017-06-12T08:07:46.212Z,78.07
2017-06-12T08:08:26.703Z,73.32
2017-06-12T08:09:07.205Z,77.69
2017-06-12T08:09:47.667Z,78.94
2017-06-12T08:10:28.198Z,78.27
2017-06-12T08:11:08.684Z,73.9
2017-06-12T08:11:49.169Z,76.81
2017-06-12T08:12:29.675Z,77.88
2017-06-12T08:13:10.152Z,76.04
2017-06-12T08:13:50.655Z,72.74
2017-06-12T08:14:31.132Z,72.55
2017-06-12T08:15:11.646Z,75.45
2017-06-12T08:15:52.124Z,74.77
2017-06-12T08:16:32.574Z,73.9
2017-06-12T08:17:13.125Z,72.16
2017-06-12T08:17:53.566Z,73.13
2017-06-12T08:18:34.128Z,70.99
2017-06-12T08:19:14.546Z,66.05
2017-06-12T08:19:55.053Z,65.75
2017-06-12T08:20:35.591Z,68.34
2017-06-12T08:21:16.027Z,68.82
2017-06-12T08:21:56.513Z,68.63
2017-06-12T08:22:37.076Z,70.76
2017-06-12T08:23:17.793Z,65.53
2017-06-12T08:23:58.074Z,65.05
2017-06-12T08:24:38.539Z,66.02
2017-06-12T08:25:19.072Z,67.08
2017-06-12T08:25:59.566Z,68.44
2017-06-12T08:26:40.981Z,68.54
2017-06-12T08:27:21.477Z,68.73
2017-06-12T08:28:01.999Z,68.63
2017-06-12T08:28:42.583Z,65.72
2017-06-12T08:29:23.113Z,66.79
2017-06-12T08:30:03.575Z,66.11
2017-06-12T08:30:44.171Z,67.37
2017-06-12T08:31:24.748Z,64.27
2017-06-12T08:32:05.333Z,67.66
2017-06-12T08:32:45.814Z,65.72
2017-06-12T08:33:26.298Z,67.37
2017-06-12T08:34:06.842Z,68.92
2017-06-12T08:34:47.388Z,68.73
2017-06-12T08:35:27.860Z,66.89
2017-06-12T08:36:08.376Z,67.18
2017-06-12T08:36:49.047Z,67.57
2017-06-12T08:37:29.415Z,68.54
2017-06-12T08:38:09.874Z,68.92
2017-06-12T08:38:50.429Z,66.2
2017-06-12T08:39:30.910Z,71.34
2017-06-12T08:40:11.631Z,71.83
2017-06-12T08:40:52.123Z,68.92
2017-06-12T08:41:32.574Z,68.92
2017-06-12T08:42:13.127Z,72.12
2017-06-12T08:42:53.628Z,72.99
2017-06-12T08:43:34.138Z,70.28
2017-06-12T08:44:14.687Z,68.76
2017-06-12T08:44:55.225Z,68.18
2017-06-12T08:45:35.695Z,67.02
2017-06-12T08:46:16.190Z,68.96
2017-06-12T08:46:56.688Z,71.48
2017-06-12T08:47:37.153Z,71.09
2017-06-12T08:48:18.004Z,69.54
2017-06-12T08:48:58.557Z,71.86
2017-06-12T08:49:39.054Z,73.61